Flight Information

DEPARTURE
BILLINGS, MT
Elevation:
3662
Runways:
10L/28R - 10518x150 - ASPH-G
10R/28L - 3800x75 - ASPH-G
7/25 - 5501x75 - ASPH-G
ATIS:
126.3
Clearance Delivery:
121.9
Ground:
121.9
Tower:
BILLINGS TOWER 127.2
DESTINATION
,
Elevation:
TPA:
1000 (est.)


6168.3 NM76° True-14° Var62° HDG

Flight Plan:
(click to file on line)

1. Type
2. Aircraft Identification
3. Aircraft Type / Special Equipment
4. True Airspeed
kts
5. Departure Airport
(ICAO code)
6. Arriving Airport
(ICAO code)
7. Cruising Altitude
ft
8. Alternate Airport
(ICAO code)
9. Route of Flight
10. Remarks


00:00:00 Departure ATIS: Destination ATIS:

Clearance Limit:
Route:
Altitude: Expect in minutes
Frequency:
Transponder: (7500 Hijack / 7600 Lost Comms / 7700 Emergency)


KBIL 010711Z 32013KT 2SM -SN BR SCT004 OVC023 00/M01 A2977 RMK AO2 SFC VIS 4 P0001 T00001006
Time: 2020-04-01T07:11:00Z
1585725897
Winds: 320 @ 13 kts
Visibility: 2.0 sm
Clouds (AGL): SCT 400
OVC 2300
Temperature: 0.0 C
Dew Point: -0.6 C
Pressure: 29.769686 in Hgbr


Notes:

Data extracted from FAA Digital Chart Supplement. Effective: 0901Z Thursday, Mar 26, 2020 to 0901Z Thursday, May 21, 2020
Current ATIS data is provided courtisy of PilotEdge.